CheckWX is a tool to help pilots better visualize weather data.  It is not intended as a substitute for an official pre-flight weather briefing.

00:23:19 UTC

KSYM TAF
Morehead-Rowan County Clyde A Thomas Regional Airport
Morehead, Kentucky, USA
KSYM 252326Z 2600/2624 02009KT 3SM -RA OVC007 FM260300 02009KT P6SM OVC015 FM260400 02009KT P6SM BKN020 FM260600 02009KT P6SM BKN035 FM260800 02009KT P6SM SCT060

Mar-26@
00:00 UTC

Mar-26 @ 00:00 UTC

Mar-26@
03:00 UTC

Mar-26 @ 03:00 UTC

KSYM 252326Z 2600/2624 02009KT 3SM -RA OVC007
Wind
  • 020° at 9 KTS
Conditions
Light Rain
Cloud Levels
  • Overcast at 700' AGL

Mar-26@
03:00 UTC

Mar-26 @ 03:00 UTC

Mar-26@
04:00 UTC

Mar-26 @ 04:00 UTC

FM260300 02009KT P6SM OVC015

From

From Standard forecast or significant change

Wind
  • 020° at 9 KTS
Cloud Levels
  • Overcast at 1,500' AGL

Mar-26@
04:00 UTC

Mar-26 @ 04:00 UTC

Mar-26@
06:00 UTC

Mar-26 @ 06:00 UTC

FM260400 02009KT P6SM BKN020

From

From Standard forecast or significant change

Wind
  • 020° at 9 KTS
Cloud Levels
  • Broken at 2,000' AGL

Mar-26@
06:00 UTC

Mar-26 @ 06:00 UTC

Mar-26@
08:00 UTC

Mar-26 @ 08:00 UTC

FM260600 02009KT P6SM BKN035

From

From Standard forecast or significant change

Wind
  • 020° at 9 KTS
Cloud Levels
  • Broken at 3,500' AGL

Mar-26@
08:00 UTC

Mar-26 @ 08:00 UTC

Mar-27@
00:00 UTC

Mar-27 @ 00:00 UTC

FM260800 02009KT P6SM SCT060

From

From Standard forecast or significant change

Wind
  • 020° at 9 KTS
Cloud Levels
  • Scattered at 6,000' AGL